sensor_id;sensor_type;location;lat;lon;timestamp;temperature;humidity
28071;DHT22;15383;48.408;9.968;2024-02-26T00:02:15;10.20;99.90
28071;DHT22;15383;48.408;9.968;2024-02-26T00:04:40;10.20;99.90
28071;DHT22;15383;48.408;9.968;2024-02-26T00:07:06;10.20;99.90
28071;DHT22;15383;48.408;9.968;2024-02-26T00:09:32;10.20;99.90
28071;DHT22;15383;48.408;9.968;2024-02-26T00:12:01;10.20;99.90
28071;DHT22;15383;48.408;9.968;2024-02-26T00:14:27;10.20;99.90
28071;DHT22;15383;48.408;9.968;2024-02-26T00:16:52;10.20;99.90
28071;DHT22;15383;48.408;9.968;2024-02-26T00:19:18;10.20;99.90
28071;DHT22;15383;48.408;9.968;2024-02-26T00:21:43;10.10;99.90
28071;DHT22;15383;48.408;9.968;2024-02-26T00:24:09;10.20;99.90
28071;DHT22;15383;48.408;9.968;2024-02-26T00:26:34;10.10;99.90
28071;DHT22;15383;48.408;9.968;2024-02-26T00:29:00;10.20;99.90
28071;DHT22;15383;48.408;9.968;2024-02-26T00:31:25;10.20;99.90
28071;DHT22;15383;48.408;9.968;2024-02-26T00:33:51;10.20;99.90
28071;DHT22;15383;48.408;9.968;2024-02-26T00:36:16;10.20;99.90
28071;DHT22;15383;48.408;9.968;2024-02-26T00:38:43;10.20;99.90
28071;DHT22;15383;48.408;9.968;2024-02-26T00:41:10;10.20;99.90
28071;DHT22;15383;48.408;9.968;2024-02-26T00:43:35;10.20;99.90
28071;DHT22;15383;48.408;9.968;2024-02-26T00:46:03;10.10;99.90
28071;DHT22;15383;48.408;9.968;2024-02-26T00:48:29;10.10;99.90
28071;DHT22;15383;48.408;9.968;2024-02-26T00:50:54;10.10;99.90
28071;DHT22;15383;48.408;9.968;2024-02-26T00:53:20;10.20;99.90
28071;DHT22;15383;48.408;9.968;2024-02-26T00:55:45;10.10;99.90
28071;DHT22;15383;48.408;9.968;2024-02-26T00:58:11;10.10;99.90
28071;DHT22;15383;48.408;9.968;2024-02-26T01:00:36;10.10;99.90
28071;DHT22;15383;48.408;9.968;2024-02-26T01:03:02;10.10;99.90
28071;DHT22;15383;48.408;9.968;2024-02-26T01:05:29;10.10;99.90
28071;DHT22;15383;48.408;9.968;2024-02-26T01:07:54;10.10;99.90
28071;DHT22;15383;48.408;9.968;2024-02-26T01:10:20;10.10;99.90
28071;DHT22;15383;48.408;9.968;2024-02-26T01:12:45;10.10;99.90
28071;DHT22;15383;48.408;9.968;2024-02-26T01:15:11;10.10;99.90
28071;DHT22;15383;48.408;9.968;2024-02-26T01:17:36;10.10;99.90
28071;DHT22;15383;48.408;9.968;2024-02-26T01:20:02;10.10;99.90
28071;DHT22;15383;48.408;9.968;2024-02-26T01:22:28;10.10;99.90
28071;DHT22;15383;48.408;9.968;2024-02-26T01:24:53;10.10;99.90
28071;DHT22;15383;48.408;9.968;2024-02-26T01:27:19;10.10;99.90
28071;DHT22;15383;48.408;9.968;2024-02-26T01:29:45;10.10;99.90
28071;DHT22;15383;48.408;9.968;2024-02-26T01:32:10;10.10;99.90
28071;DHT22;15383;48.408;9.968;2024-02-26T01:34:36;10.10;99.90
28071;DHT22;15383;48.408;9.968;2024-02-26T01:37:02;10.10;99.90
28071;DHT22;15383;48.408;9.968;2024-02-26T01:39:28;10.10;99.90
28071;DHT22;15383;48.408;9.968;2024-02-26T01:41:55;10.10;99.90
28071;DHT22;15383;48.408;9.968;2024-02-26T01:44:21;10.10;99.90
28071;DHT22;15383;48.408;9.968;2024-02-26T01:46:48;10.10;99.90
28071;DHT22;15383;48.408;9.968;2024-02-26T01:49:13;10.10;99.90
28071;DHT22;15383;48.408;9.968;2024-02-26T01:51:41;10.10;99.90
28071;DHT22;15383;48.408;9.968;2024-02-26T01:54:08;10.10;99.90
28071;DHT22;15383;48.408;9.968;2024-02-26T01:56:35;10.10;99.90
28071;DHT22;15383;48.408;9.968;2024-02-26T01:59:02;10.10;99.90
28071;DHT22;15383;48.408;9.968;2024-02-26T02:01:29;10.10;99.90
28071;DHT22;15383;48.408;9.968;2024-02-26T02:03:58;10.10;99.90
28071;DHT22;15383;48.408;9.968;2024-02-26T02:06:24;10.10;99.90
28071;DHT22;15383;48.408;9.968;2024-02-26T02:08:49;10.10;99.90
28071;DHT22;15383;48.408;9.968;2024-02-26T02:11:16;10.10;99.90
28071;DHT22;15383;48.408;9.968;2024-02-26T02:13:42;10.10;99.90
28071;DHT22;15383;48.408;9.968;2024-02-26T02:16:08;10.10;99.90
28071;DHT22;15383;48.408;9.968;2024-02-26T02:18:34;10.10;99.90
28071;DHT22;15383;48.408;9.968;2024-02-26T02:21:03;10.10;99.90
28071;DHT22;15383;48.408;9.968;2024-02-26T02:23:28;10.10;99.90
28071;DHT22;15383;48.408;9.968;2024-02-26T02:25:54;10.10;99.90
28071;DHT22;15383;48.408;9.968;2024-02-26T02:28:22;10.10;99.90
28071;DHT22;15383;48.408;9.968;2024-02-26T02:30:48;10.10;99.90
28071;DHT22;15383;48.408;9.968;2024-02-26T02:33:15;10.10;99.90
28071;DHT22;15383;48.408;9.968;2024-02-26T02:35:41;10.10;99.90
28071;DHT22;15383;48.408;9.968;2024-02-26T02:38:06;10.10;99.90
28071;DHT22;15383;48.408;9.968;2024-02-26T02:40:32;10.10;99.90
28071;DHT22;15383;48.408;9.968;2024-02-26T02:42:58;10.10;99.90
28071;DHT22;15383;48.408;9.968;2024-02-26T02:45:24;10.10;99.90
28071;DHT22;15383;48.408;9.968;2024-02-26T02:47:49;10.10;99.90
28071;DHT22;15383;48.408;9.968;2024-02-26T02:50:15;10.10;99.90
28071;DHT22;15383;48.408;9.968;2024-02-26T02:52:40;10.10;99.90
28071;DHT22;15383;48.408;9.968;2024-02-26T02:55:06;10.10;99.90
28071;DHT22;15383;48.408;9.968;2024-02-26T02:57:32;10.10;99.90
28071;DHT22;15383;48.408;9.968;2024-02-26T02:59:58;10.10;99.90
28071;DHT22;15383;48.408;9.968;2024-02-26T03:02:24;10.10;99.90
28071;DHT22;15383;48.408;9.968;2024-02-26T03:04:52;10.10;99.90
28071;DHT22;15383;48.408;9.968;2024-02-26T03:07:17;10.10;99.90
28071;DHT22;15383;48.408;9.968;2024-02-26T03:09:43;10.10;99.90
28071;DHT22;15383;48.408;9.968;2024-02-26T03:12:09;10.10;99.90
28071;DHT22;15383;48.408;9.968;2024-02-26T03:14:34;10.10;99.90
28071;DHT22;15383;48.408;9.968;2024-02-26T03:17:00;10.00;99.90
28071;DHT22;15383;48.408;9.968;2024-02-26T03:19:26;10.10;99.90
28071;DHT22;15383;48.408;9.968;2024-02-26T03:21:52;10.10;99.90
28071;DHT22;15383;48.408;9.968;2024-02-26T03:24:17;10.00;99.90
28071;DHT22;15383;48.408;9.968;2024-02-26T03:26:43;10.10;99.90
28071;DHT22;15383;48.408;9.968;2024-02-26T03:29:08;10.00;99.90
28071;DHT22;15383;48.408;9.968;2024-02-26T03:31:34;10.00;99.90
28071;DHT22;15383;48.408;9.968;2024-02-26T03:33:59;10.00;99.90
28071;DHT22;15383;48.408;9.968;2024-02-26T03:36:25;10.10;99.90
28071;DHT22;15383;48.408;9.968;2024-02-26T03:38:51;10.10;99.90
28071;DHT22;15383;48.408;9.968;2024-02-26T03:41:16;10.10;99.90
28071;DHT22;15383;48.408;9.968;2024-02-26T03:43:42;10.10;99.90
28071;DHT22;15383;48.408;9.968;2024-02-26T03:46:08;10.10;99.90
28071;DHT22;15383;48.408;9.968;2024-02-26T03:48:34;10.10;99.90
28071;DHT22;15383;48.408;9.968;2024-02-26T03:51:01;10.10;99.90
28071;DHT22;15383;48.408;9.968;2024-02-26T03:53:26;10.10;99.90
28071;DHT22;15383;48.408;9.968;2024-02-26T03:55:52;10.10;99.90
28071;DHT22;15383;48.408;9.968;2024-02-26T03:58:18;10.00;99.90
28071;DHT22;15383;48.408;9.968;2024-02-26T04:00:43;10.00;99.90
28071;DHT22;15383;48.408;9.968;2024-02-26T04:03:09;10.00;99.90
28071;DHT22;15383;48.408;9.968;2024-02-26T04:05:35;10.00;99.90
28071;DHT22;15383;48.408;9.968;2024-02-26T04:08:01;10.00;99.90
28071;DHT22;15383;48.408;9.968;2024-02-26T04:10:26;10.00;99.90
28071;DHT22;15383;48.408;9.968;2024-02-26T04:12:52;10.00;99.90
28071;DHT22;15383;48.408;9.968;2024-02-26T04:15:17;10.00;99.90
28071;DHT22;15383;48.408;9.968;2024-02-26T04:17:43;10.00;99.90
28071;DHT22;15383;48.408;9.968;2024-02-26T04:20:14;10.10;99.90
28071;DHT22;15383;48.408;9.968;2024-02-26T04:22:40;10.00;99.90
28071;DHT22;15383;48.408;9.968;2024-02-26T04:25:05;10.00;99.90
28071;DHT22;15383;48.408;9.968;2024-02-26T04:27:31;10.10;99.90
28071;DHT22;15383;48.408;9.968;2024-02-26T04:29:56;10.00;99.90
28071;DHT22;15383;48.408;9.968;2024-02-26T04:32:22;10.00;99.90
28071;DHT22;15383;48.408;9.968;2024-02-26T04:34:48;10.00;99.90
28071;DHT22;15383;48.408;9.968;2024-02-26T04:37:13;10.10;99.90
28071;DHT22;15383;48.408;9.968;2024-02-26T04:39:39;10.10;99.90
28071;DHT22;15383;48.408;9.968;2024-02-26T04:42:04;10.00;99.90
28071;DHT22;15383;48.408;9.968;2024-02-26T04:44:30;10.00;99.90
28071;DHT22;15383;48.408;9.968;2024-02-26T04:46:56;10.00;99.90
28071;DHT22;15383;48.408;9.968;2024-02-26T04:49:22;10.00;99.90
28071;DHT22;15383;48.408;9.968;2024-02-26T04:51:47;10.00;99.90
28071;DHT22;15383;48.408;9.968;2024-02-26T04:54:13;10.00;99.90
28071;DHT22;15383;48.408;9.968;2024-02-26T04:56:39;10.00;99.90
28071;DHT22;15383;48.408;9.968;2024-02-26T04:59:04;10.00;99.90
28071;DHT22;15383;48.408;9.968;2024-02-26T05:01:30;10.00;99.90
28071;DHT22;15383;48.408;9.968;2024-02-26T05:03:55;10.00;99.90
28071;DHT22;15383;48.408;9.968;2024-02-26T05:06:21;10.00;99.90
28071;DHT22;15383;48.408;9.968;2024-02-26T05:08:47;10.00;99.90
28071;DHT22;15383;48.408;9.968;2024-02-26T05:11:12;10.00;99.90
28071;DHT22;15383;48.408;9.968;2024-02-26T05:13:38;10.00;99.90
28071;DHT22;15383;48.408;9.968;2024-02-26T05:16:03;10.00;99.90
28071;DHT22;15383;48.408;9.968;2024-02-26T05:18:29;10.00;99.90
28071;DHT22;15383;48.408;9.968;2024-02-26T05:20:54;10.00;99.90
28071;DHT22;15383;48.408;9.968;2024-02-26T05:23:20;10.00;99.90
28071;DHT22;15383;48.408;9.968;2024-02-26T05:25:46;10.00;99.90
28071;DHT22;15383;48.408;9.968;2024-02-26T05:28:13;10.00;99.90
28071;DHT22;15383;48.408;9.968;2024-02-26T05:30:41;10.00;99.90
28071;DHT22;15383;48.408;9.968;2024-02-26T05:33:06;10.00;99.90
28071;DHT22;15383;48.408;9.968;2024-02-26T05:35:32;10.00;99.90
28071;DHT22;15383;48.408;9.968;2024-02-26T05:37:57;10.00;99.90
28071;DHT22;15383;48.408;9.968;2024-02-26T05:40:23;10.00;99.90
28071;DHT22;15383;48.408;9.968;2024-02-26T05:42:48;10.00;99.90
28071;DHT22;15383;48.408;9.968;2024-02-26T05:45:14;10.00;99.90
28071;DHT22;15383;48.408;9.968;2024-02-26T05:47:40;10.00;99.90
28071;DHT22;15383;48.408;9.968;2024-02-26T05:50:09;10.00;99.90
28071;DHT22;15383;48.408;9.968;2024-02-26T05:52:39;10.00;99.90
28071;DHT22;15383;48.408;9.968;2024-02-26T05:55:05;10.00;99.90
28071;DHT22;15383;48.408;9.968;2024-02-26T05:57:31;10.00;99.90
28071;DHT22;15383;48.408;9.968;2024-02-26T05:59:57;10.00;99.90
28071;DHT22;15383;48.408;9.968;2024-02-26T06:02:26;9.90;99.90
28071;DHT22;15383;48.408;9.968;2024-02-26T06:04:51;9.90;99.90
28071;DHT22;15383;48.408;9.968;2024-02-26T06:07:17;9.90;99.90
28071;DHT22;15383;48.408;9.968;2024-02-26T06:09:42;9.90;99.90
28071;DHT22;15383;48.408;9.968;2024-02-26T06:12:08;9.90;99.90
28071;DHT22;15383;48.408;9.968;2024-02-26T06:14:34;9.90;99.90
28071;DHT22;15383;48.408;9.968;2024-02-26T06:16:59;9.90;99.90
28071;DHT22;15383;48.408;9.968;2024-02-26T06:19:25;9.90;99.90
28071;DHT22;15383;48.408;9.968;2024-02-26T06:21:50;9.90;99.90
28071;DHT22;15383;48.408;9.968;2024-02-26T06:24:16;9.90;99.90
28071;DHT22;15383;48.408;9.968;2024-02-26T06:26:41;9.90;99.90
28071;DHT22;15383;48.408;9.968;2024-02-26T06:29:07;10.00;99.90
28071;DHT22;15383;48.408;9.968;2024-02-26T06:31:32;9.90;99.90
28071;DHT22;15383;48.408;9.968;2024-02-26T06:33:58;9.90;99.90
28071;DHT22;15383;48.408;9.968;2024-02-26T06:36:24;9.90;99.90
28071;DHT22;15383;48.408;9.968;2024-02-26T06:38:49;9.90;99.90
28071;DHT22;15383;48.408;9.968;2024-02-26T06:41:15;9.90;99.90
28071;DHT22;15383;48.408;9.968;2024-02-26T06:43:40;9.90;99.90
28071;DHT22;15383;48.408;9.968;2024-02-26T06:46:06;9.90;99.90
28071;DHT22;15383;48.408;9.968;2024-02-26T06:48:32;9.90;99.90
28071;DHT22;15383;48.408;9.968;2024-02-26T06:50:58;9.90;99.90
28071;DHT22;15383;48.408;9.968;2024-02-26T06:53:23;9.90;99.90
28071;DHT22;15383;48.408;9.968;2024-02-26T06:55:49;9.90;99.90
28071;DHT22;15383;48.408;9.968;2024-02-26T06:58:15;9.90;99.90
28071;DHT22;15383;48.408;9.968;2024-02-26T07:00:41;9.90;99.90
28071;DHT22;15383;48.408;9.968;2024-02-26T07:03:06;9.90;99.90
28071;DHT22;15383;48.408;9.968;2024-02-26T07:05:32;9.90;99.90
28071;DHT22;15383;48.408;9.968;2024-02-26T07:07:57;10.00;99.90
28071;DHT22;15383;48.408;9.968;2024-02-26T07:10:23;10.00;99.90
28071;DHT22;15383;48.408;9.968;2024-02-26T07:12:48;10.00;99.90
28071;DHT22;15383;48.408;9.968;2024-02-26T07:15:14;10.00;99.90
28071;DHT22;15383;48.408;9.968;2024-02-26T07:17:40;10.00;99.90
28071;DHT22;15383;48.408;9.968;2024-02-26T07:20:08;10.00;99.90
28071;DHT22;15383;48.408;9.968;2024-02-26T07:22:34;10.00;99.90
28071;DHT22;15383;48.408;9.968;2024-02-26T07:24:59;10.00;99.90
28071;DHT22;15383;48.408;9.968;2024-02-26T07:27:25;10.00;99.90
28071;DHT22;15383;48.408;9.968;2024-02-26T07:29:50;10.00;99.90
28071;DHT22;15383;48.408;9.968;2024-02-26T07:32:16;10.00;99.90
28071;DHT22;15383;48.408;9.968;2024-02-26T07:34:41;10.00;99.90
28071;DHT22;15383;48.408;9.968;2024-02-26T07:37:10;10.00;99.90
28071;DHT22;15383;48.408;9.968;2024-02-26T07:39:35;10.00;99.90
28071;DHT22;15383;48.408;9.968;2024-02-26T07:42:02;10.10;99.90
28071;DHT22;15383;48.408;9.968;2024-02-26T07:44:27;10.10;99.90
28071;DHT22;15383;48.408;9.968;2024-02-26T07:46:53;10.10;99.90
28071;DHT22;15383;48.408;9.968;2024-02-26T07:49:18;10.10;99.90
28071;DHT22;15383;48.408;9.968;2024-02-26T07:51:44;10.00;99.90
28071;DHT22;15383;48.408;9.968;2024-02-26T07:54:09;10.00;99.90
28071;DHT22;15383;48.408;9.968;2024-02-26T07:56:35;10.00;99.90
28071;DHT22;15383;48.408;9.968;2024-02-26T07:59:01;10.10;99.90
28071;DHT22;15383;48.408;9.968;2024-02-26T08:01:26;10.10;99.90
28071;DHT22;15383;48.408;9.968;2024-02-26T08:03:53;10.10;99.90
28071;DHT22;15383;48.408;9.968;2024-02-26T08:06:19;10.10;99.90
28071;DHT22;15383;48.408;9.968;2024-02-26T08:08:44;10.10;99.90
28071;DHT22;15383;48.408;9.968;2024-02-26T08:11:10;10.10;99.90
28071;DHT22;15383;48.408;9.968;2024-02-26T08:13:36;10.10;99.90
28071;DHT22;15383;48.408;9.968;2024-02-26T08:16:01;10.20;99.90
28071;DHT22;15383;48.408;9.968;2024-02-26T08:18:27;10.20;99.90
28071;DHT22;15383;48.408;9.968;2024-02-26T08:20:52;10.10;99.90
28071;DHT22;15383;48.408;9.968;2024-02-26T08:23:18;10.10;99.90
28071;DHT22;15383;48.408;9.968;2024-02-26T08:25:44;10.10;99.90
28071;DHT22;15383;48.408;9.968;2024-02-26T08:28:09;10.10;99.90
28071;DHT22;15383;48.408;9.968;2024-02-26T08:30:38;10.10;99.90
28071;DHT22;15383;48.408;9.968;2024-02-26T08:33:04;10.10;99.90
28071;DHT22;15383;48.408;9.968;2024-02-26T08:35:29;10.10;99.90
28071;DHT22;15383;48.408;9.968;2024-02-26T08:37:55;10.10;99.90
28071;DHT22;15383;48.408;9.968;2024-02-26T08:40:21;10.10;99.90
28071;DHT22;15383;48.408;9.968;2024-02-26T08:42:46;10.10;99.90
28071;DHT22;15383;48.408;9.968;2024-02-26T08:45:12;10.10;99.90
28071;DHT22;15383;48.408;9.968;2024-02-26T08:47:40;10.10;99.90
28071;DHT22;15383;48.408;9.968;2024-02-26T08:50:06;10.10;99.90
28071;DHT22;15383;48.408;9.968;2024-02-26T08:52:32;10.10;99.90
28071;DHT22;15383;48.408;9.968;2024-02-26T08:54:58;10.10;99.90
28071;DHT22;15383;48.408;9.968;2024-02-26T08:57:25;10.10;99.90
28071;DHT22;15383;48.408;9.968;2024-02-26T08:59:52;10.10;99.90
28071;DHT22;15383;48.408;9.968;2024-02-26T09:02:18;10.10;99.90
28071;DHT22;15383;48.408;9.968;2024-02-26T09:04:45;10.10;99.90
28071;DHT22;15383;48.408;9.968;2024-02-26T09:07:10;10.10;99.90
28071;DHT22;15383;48.408;9.968;2024-02-26T09:09:36;10.10;99.90
28071;DHT22;15383;48.408;9.968;2024-02-26T09:12:02;10.20;99.90
28071;DHT22;15383;48.408;9.968;2024-02-26T09:14:28;10.20;99.90
28071;DHT22;15383;48.408;9.968;2024-02-26T09:16:53;10.20;99.90
28071;DHT22;15383;48.408;9.968;2024-02-26T09:19:19;10.20;99.90
28071;DHT22;15383;48.408;9.968;2024-02-26T09:21:45;10.20;99.90
28071;DHT22;15383;48.408;9.968;2024-02-26T09:24:11;10.20;99.90
28071;DHT22;15383;48.408;9.968;2024-02-26T09:26:37;10.20;99.90
28071;DHT22;15383;48.408;9.968;2024-02-26T09:29:03;10.20;99.90
28071;DHT22;15383;48.408;9.968;2024-02-26T09:31:30;10.20;99.90
28071;DHT22;15383;48.408;9.968;2024-02-26T09:33:55;10.20;99.90
28071;DHT22;15383;48.408;9.968;2024-02-26T09:36:21;10.20;99.90
28071;DHT22;15383;48.408;9.968;2024-02-26T09:38:47;10.20;99.90
28071;DHT22;15383;48.408;9.968;2024-02-26T09:41:16;10.20;99.90
28071;DHT22;15383;48.408;9.968;2024-02-26T09:43:44;10.30;99.90
28071;DHT22;15383;48.408;9.968;2024-02-26T09:46:10;10.50;99.90
28071;DHT22;15383;48.408;9.968;2024-02-26T09:48:37;10.70;99.90
28071;DHT22;15383;48.408;9.968;2024-02-26T09:51:03;11.00;99.90
28071;DHT22;15383;48.408;9.968;2024-02-26T09:53:29;11.10;99.90
28071;DHT22;15383;48.408;9.968;2024-02-26T09:55:57;11.10;99.90
28071;DHT22;15383;48.408;9.968;2024-02-26T09:58:24;10.90;99.90
28071;DHT22;15383;48.408;9.968;2024-02-26T10:00:56;10.80;99.90
28071;DHT22;15383;48.408;9.968;2024-02-26T10:03:32;10.80;99.90
28071;DHT22;15383;48.408;9.968;2024-02-26T10:05:59;11.10;99.90
28071;DHT22;15383;48.408;9.968;2024-02-26T10:08:28;11.30;99.90
28071;DHT22;15383;48.408;9.968;2024-02-26T10:10:55;11.50;99.90
28071;DHT22;15383;48.408;9.968;2024-02-26T10:13:20;11.60;99.90
28071;DHT22;15383;48.408;9.968;2024-02-26T10:15:46;11.50;99.90
28071;DHT22;15383;48.408;9.968;2024-02-26T10:18:12;11.30;99.90
28071;DHT22;15383;48.408;9.968;2024-02-26T10:20:37;11.30;99.90
28071;DHT22;15383;48.408;9.968;2024-02-26T10:23:03;11.20;99.90
28071;DHT22;15383;48.408;9.968;2024-02-26T10:25:30;11.20;99.90
28071;DHT22;15383;48.408;9.968;2024-02-26T10:28:00;11.30;99.90
28071;DHT22;15383;48.408;9.968;2024-02-26T10:30:29;11.40;99.90
28071;DHT22;15383;48.408;9.968;2024-02-26T10:32:56;11.60;99.90
28071;DHT22;15383;48.408;9.968;2024-02-26T10:35:21;11.80;99.90
28071;DHT22;15383;48.408;9.968;2024-02-26T10:37:48;11.90;99.90
28071;DHT22;15383;48.408;9.968;2024-02-26T10:40:14;11.90;99.90
28071;DHT22;15383;48.408;9.968;2024-02-26T10:42:41;11.80;99.90
28071;DHT22;15383;48.408;9.968;2024-02-26T10:45:09;11.70;99.90
28071;DHT22;15383;48.408;9.968;2024-02-26T10:47:36;11.60;99.90
28071;DHT22;15383;48.408;9.968;2024-02-26T10:50:03;11.60;99.90
28071;DHT22;15383;48.408;9.968;2024-02-26T10:52:32;11.50;99.90
28071;DHT22;15383;48.408;9.968;2024-02-26T10:55:04;11.40;99.90
28071;DHT22;15383;48.408;9.968;2024-02-26T10:57:40;11.30;99.90
28071;DHT22;15383;48.408;9.968;2024-02-26T11:00:07;11.30;99.90
28071;DHT22;15383;48.408;9.968;2024-02-26T11:02:36;11.30;99.90
28071;DHT22;15383;48.408;9.968;2024-02-26T11:05:06;11.20;99.90
28071;DHT22;15383;48.408;9.968;2024-02-26T11:07:32;11.10;99.90
28071;DHT22;15383;48.408;9.968;2024-02-26T11:10:01;11.10;99.90
28071;DHT22;15383;48.408;9.968;2024-02-26T11:12:31;11.10;99.90
28071;DHT22;15383;48.408;9.968;2024-02-26T11:14:57;11.00;99.90
28071;DHT22;15383;48.408;9.968;2024-02-26T11:17:26;11.00;99.90
28071;DHT22;15383;48.408;9.968;2024-02-26T11:19:55;10.90;99.90
28071;DHT22;15383;48.408;9.968;2024-02-26T11:22:21;10.90;99.90
28071;DHT22;15383;48.408;9.968;2024-02-26T11:24:48;10.90;99.90
28071;DHT22;15383;48.408;9.968;2024-02-26T11:27:16;10.90;99.90
28071;DHT22;15383;48.408;9.968;2024-02-26T11:29:49;10.90;99.90
28071;DHT22;15383;48.408;9.968;2024-02-26T11:32:16;11.00;99.90
28071;DHT22;15383;48.408;9.968;2024-02-26T11:34:42;11.00;99.90
28071;DHT22;15383;48.408;9.968;2024-02-26T11:37:13;10.90;99.90
28071;DHT22;15383;48.408;9.968;2024-02-26T11:39:42;10.90;99.90
28071;DHT22;15383;48.408;9.968;2024-02-26T11:42:08;10.80;99.90
28071;DHT22;15383;48.408;9.968;2024-02-26T11:44:34;10.70;99.90
28071;DHT22;15383;48.408;9.968;2024-02-26T11:47:21;10.70;99.90
28071;DHT22;15383;48.408;9.968;2024-02-26T11:49:47;10.70;99.90
28071;DHT22;15383;48.408;9.968;2024-02-26T11:52:14;10.70;99.90
28071;DHT22;15383;48.408;9.968;2024-02-26T11:57:30;10.60;99.90
28071;DHT22;15383;48.408;9.968;2024-02-26T12:05:17;10.60;99.90
28071;DHT22;15383;48.408;9.968;2024-02-26T12:07:52;10.60;99.90
28071;DHT22;15383;48.408;9.968;2024-02-26T12:10:28;10.60;99.90
28071;DHT22;15383;48.408;9.968;2024-02-26T12:15:35;10.60;99.90
28071;DHT22;15383;48.408;9.968;2024-02-26T12:18:03;10.60;99.90
28071;DHT22;15383;48.408;9.968;2024-02-26T12:20:29;10.50;99.90
28071;DHT22;15383;48.408;9.968;2024-02-26T12:22:56;10.50;99.90
28071;DHT22;15383;48.408;9.968;2024-02-26T12:25:28;10.50;99.90
28071;DHT22;15383;48.408;9.968;2024-02-26T12:27:54;10.50;99.90
28071;DHT22;15383;48.408;9.968;2024-02-26T12:30:20;10.50;99.90
28071;DHT22;15383;48.408;9.968;2024-02-26T12:32:47;10.50;99.90
28071;DHT22;15383;48.408;9.968;2024-02-26T12:35:14;10.40;99.90
28071;DHT22;15383;48.408;9.968;2024-02-26T12:37:40;10.50;99.90
28071;DHT22;15383;48.408;9.968;2024-02-26T12:40:07;10.50;99.90
28071;DHT22;15383;48.408;9.968;2024-02-26T12:42:34;10.40;99.90
28071;DHT22;15383;48.408;9.968;2024-02-26T12:45:08;10.40;99.90
28071;DHT22;15383;48.408;9.968;2024-02-26T12:47:42;10.40;99.90
28071;DHT22;15383;48.408;9.968;2024-02-26T12:50:09;10.40;99.90
28071;DHT22;15383;48.408;9.968;2024-02-26T12:52:36;10.40;99.90
28071;DHT22;15383;48.408;9.968;2024-02-26T12:55:03;10.40;99.90
28071;DHT22;15383;48.408;9.968;2024-02-26T12:57:32;10.40;99.90
28071;DHT22;15383;48.408;9.968;2024-02-26T13:00:01;10.40;99.90
28071;DHT22;15383;48.408;9.968;2024-02-26T13:02:29;10.40;99.90
28071;DHT22;15383;48.408;9.968;2024-02-26T13:04:56;10.40;99.90
28071;DHT22;15383;48.408;9.968;2024-02-26T13:07:22;10.40;99.90
28071;DHT22;15383;48.408;9.968;2024-02-26T13:09:48;10.40;99.90
28071;DHT22;15383;48.408;9.968;2024-02-26T13:12:14;10.40;99.90
28071;DHT22;15383;48.408;9.968;2024-02-26T13:14:40;10.40;99.90
28071;DHT22;15383;48.408;9.968;2024-02-26T13:17:06;10.40;99.90
28071;DHT22;15383;48.408;9.968;2024-02-26T13:19:32;10.40;99.90
28071;DHT22;15383;48.408;9.968;2024-02-26T13:22:05;10.40;99.90
28071;DHT22;15383;48.408;9.968;2024-02-26T13:24:32;10.40;99.90
28071;DHT22;15383;48.408;9.968;2024-02-26T13:26:57;10.30;99.90
28071;DHT22;15383;48.408;9.968;2024-02-26T13:29:23;10.40;99.90
28071;DHT22;15383;48.408;9.968;2024-02-26T13:31:54;10.40;99.90
28071;DHT22;15383;48.408;9.968;2024-02-26T13:36:51;10.40;99.90
28071;DHT22;15383;48.408;9.968;2024-02-26T13:39:27;10.40;99.90
28071;DHT22;15383;48.408;9.968;2024-02-26T13:41:53;10.40;99.90
28071;DHT22;15383;48.408;9.968;2024-02-26T13:44:20;10.40;99.90
28071;DHT22;15383;48.408;9.968;2024-02-26T13:46:46;10.40;99.90
28071;DHT22;15383;48.408;9.968;2024-02-26T13:49:12;10.40;99.90
28071;DHT22;15383;48.408;9.968;2024-02-26T13:51:39;10.40;99.90
28071;DHT22;15383;48.408;9.968;2024-02-26T13:54:04;10.50;99.90
28071;DHT22;15383;48.408;9.968;2024-02-26T13:56:31;10.40;99.90
28071;DHT22;15383;48.408;9.968;2024-02-26T13:58:57;10.40;99.90
28071;DHT22;15383;48.408;9.968;2024-02-26T14:01:23;10.50;99.90
28071;DHT22;15383;48.408;9.968;2024-02-26T14:03:49;10.50;99.90
28071;DHT22;15383;48.408;9.968;2024-02-26T14:06:15;10.40;99.90
28071;DHT22;15383;48.408;9.968;2024-02-26T14:08:40;10.50;99.90
28071;DHT22;15383;48.408;9.968;2024-02-26T14:11:06;10.50;99.90
28071;DHT22;15383;48.408;9.968;2024-02-26T14:13:31;10.40;99.90
28071;DHT22;15383;48.408;9.968;2024-02-26T14:15:57;10.50;99.90
28071;DHT22;15383;48.408;9.968;2024-02-26T14:18:22;10.50;99.90
28071;DHT22;15383;48.408;9.968;2024-02-26T14:20:48;10.50;99.90
28071;DHT22;15383;48.408;9.968;2024-02-26T14:23:14;10.50;99.90
28071;DHT22;15383;48.408;9.968;2024-02-26T14:25:40;10.50;99.90
28071;DHT22;15383;48.408;9.968;2024-02-26T14:28:05;10.50;99.90
28071;DHT22;15383;48.408;9.968;2024-02-26T14:30:31;10.50;99.90
28071;DHT22;15383;48.408;9.968;2024-02-26T14:32:58;10.40;99.90
28071;DHT22;15383;48.408;9.968;2024-02-26T14:35:23;10.50;99.90
28071;DHT22;15383;48.408;9.968;2024-02-26T14:37:49;10.50;99.90
28071;DHT22;15383;48.408;9.968;2024-02-26T14:40:15;10.40;99.90
28071;DHT22;15383;48.408;9.968;2024-02-26T14:42:41;10.40;99.90
28071;DHT22;15383;48.408;9.968;2024-02-26T14:45:07;10.40;99.90
28071;DHT22;15383;48.408;9.968;2024-02-26T14:47:38;10.50;99.90
28071;DHT22;15383;48.408;9.968;2024-02-26T14:50:04;10.40;99.90
28071;DHT22;15383;48.408;9.968;2024-02-26T14:52:30;10.40;99.90
28071;DHT22;15383;48.408;9.968;2024-02-26T14:54:56;10.40;99.90
28071;DHT22;15383;48.408;9.968;2024-02-26T14:57:23;10.40;99.90
28071;DHT22;15383;48.408;9.968;2024-02-26T14:59:49;10.40;99.90
28071;DHT22;15383;48.408;9.968;2024-02-26T15:02:16;10.40;99.90
28071;DHT22;15383;48.408;9.968;2024-02-26T15:04:42;10.40;99.90
28071;DHT22;15383;48.408;9.968;2024-02-26T15:07:08;10.40;99.90
28071;DHT22;15383;48.408;9.968;2024-02-26T15:09:34;10.40;99.90
28071;DHT22;15383;48.408;9.968;2024-02-26T15:11:59;10.40;99.90
28071;DHT22;15383;48.408;9.968;2024-02-26T15:14:25;10.40;99.90
28071;DHT22;15383;48.408;9.968;2024-02-26T15:16:52;10.40;99.90
28071;DHT22;15383;48.408;9.968;2024-02-26T15:19:17;10.40;99.90
28071;DHT22;15383;48.408;9.968;2024-02-26T15:21:47;10.40;99.90
28071;DHT22;15383;48.408;9.968;2024-02-26T15:24:13;10.40;99.90
28071;DHT22;15383;48.408;9.968;2024-02-26T15:26:41;10.40;99.90
28071;DHT22;15383;48.408;9.968;2024-02-26T15:29:07;10.40;99.90
28071;DHT22;15383;48.408;9.968;2024-02-26T15:31:36;10.40;99.90
28071;DHT22;15383;48.408;9.968;2024-02-26T15:34:02;10.30;99.90
28071;DHT22;15383;48.408;9.968;2024-02-26T15:36:28;10.40;99.90
28071;DHT22;15383;48.408;9.968;2024-02-26T15:38:53;10.30;99.90
28071;DHT22;15383;48.408;9.968;2024-02-26T15:41:19;10.40;99.90